createdAt,value
2019-01-10T00:00:46.909Z,0.00
2019-01-10T00:01:46.867Z,0.00
2019-01-10T00:02:46.818Z,0.00
2019-01-10T00:03:46.772Z,0.00
2019-01-10T00:04:46.728Z,0.00
2019-01-10T00:05:46.690Z,0.00
2019-01-10T00:06:46.641Z,0.00
2019-01-10T00:07:46.599Z,0.00
2019-01-10T00:08:46.551Z,0.00
2019-01-10T00:09:46.542Z,0.00
2019-01-10T00:10:46.463Z,0.00
2019-01-10T00:11:46.506Z,0.00
2019-01-10T00:12:46.377Z,0.00
2019-01-10T00:13:46.330Z,0.00
2019-01-10T00:14:46.287Z,0.00
2019-01-10T00:15:46.241Z,0.00
2019-01-10T00:16:46.197Z,0.00
2019-01-10T00:17:46.154Z,0.00
2019-01-10T00:18:46.109Z,0.00
2019-01-10T00:19:46.067Z,0.00
2019-01-10T00:20:46.020Z,0.00
2019-01-10T00:21:45.976Z,0.00
2019-01-10T00:22:45.932Z,0.00
2019-01-10T00:23:45.887Z,0.00
2019-01-10T00:24:45.844Z,0.00
2019-01-10T00:25:45.798Z,0.00
2019-01-10T00:26:45.754Z,0.00
2019-01-10T00:27:45.712Z,0.00
2019-01-10T00:28:45.666Z,0.00
2019-01-10T00:29:45.622Z,0.00
2019-01-10T00:30:45.577Z,0.00
2019-01-10T00:31:45.532Z,0.00
2019-01-10T00:32:45.488Z,0.00
2019-01-10T00:33:45.444Z,0.00
2019-01-10T00:34:45.431Z,0.00
2019-01-10T00:35:45.375Z,0.00
2019-01-10T00:36:45.311Z,0.00
2019-01-10T00:37:45.267Z,0.00
2019-01-10T00:38:45.223Z,0.00
2019-01-10T00:39:45.178Z,0.00
2019-01-10T00:40:45.134Z,0.00
2019-01-10T00:41:45.092Z,0.00
2019-01-10T00:42:49.816Z,0.00
2019-01-10T00:43:45.068Z,0.00
2019-01-10T00:44:44.956Z,0.00
2019-01-10T00:45:44.913Z,0.00
2019-01-10T00:46:44.867Z,0.00
2019-01-10T00:47:44.822Z,0.00
2019-01-10T00:48:44.779Z,0.00
2019-01-10T00:49:44.735Z,0.00
2019-01-10T00:50:44.690Z,0.00
2019-01-10T00:51:44.646Z,0.00
2019-01-10T00:52:44.601Z,0.00
2019-01-10T00:53:44.589Z,0.00
2019-01-10T00:54:44.514Z,0.00
2019-01-10T00:55:44.468Z,0.00
2019-01-10T00:56:44.425Z,0.00
2019-01-10T00:57:44.382Z,0.00
2019-01-10T00:58:44.336Z,0.00
2019-01-10T00:59:44.342Z,0.00
2019-01-10T01:00:44.246Z,0.00
2019-01-10T01:01:44.203Z,0.00
2019-01-10T01:02:44.159Z,0.00
2019-01-10T01:03:44.112Z,0.00
2019-01-10T01:04:44.203Z,0.00
2019-01-10T01:05:44.027Z,0.00
2019-01-10T01:06:43.985Z,0.00
2019-01-10T01:07:43.938Z,0.00
2019-01-10T01:08:43.893Z,0.00
2019-01-10T01:09:43.849Z,0.00
2019-01-10T01:10:43.805Z,0.00
2019-01-10T01:11:43.760Z,0.00
2019-01-10T01:12:43.715Z,0.00
2019-01-10T01:13:43.721Z,0.00
2019-01-10T01:14:43.628Z,0.00
2019-01-10T01:15:43.582Z,0.00
2019-01-10T01:16:43.539Z,0.00
2019-01-10T01:17:43.499Z,0.00
2019-01-10T01:18:43.452Z,0.00
2019-01-10T01:19:43.405Z,0.00
2019-01-10T01:20:43.365Z,0.00
2019-01-10T01:21:43.317Z,0.00
2019-01-10T01:22:43.274Z,0.00
2019-01-10T01:23:43.228Z,0.00
2019-01-10T01:24:43.289Z,0.00
2019-01-10T01:25:43.141Z,0.00
2019-01-10T01:26:43.096Z,0.00
2019-01-10T01:27:43.050Z,0.00
2019-01-10T01:28:43.013Z,0.00
2019-01-10T01:29:42.965Z,0.00
2019-01-10T01:30:42.971Z,0.00
2019-01-10T01:31:42.873Z,0.00
2019-01-10T01:32:42.830Z,0.00
2019-01-10T01:33:42.853Z,0.00
2019-01-10T01:34:42.744Z,0.00
2019-01-10T01:35:42.698Z,0.00
2019-01-10T01:36:42.652Z,0.00
2019-01-10T01:37:42.607Z,0.00
2019-01-10T01:38:42.566Z,0.00
2019-01-10T01:39:42.577Z,0.00
2019-01-10T01:40:42.476Z,0.00
2019-01-10T01:41:42.432Z,0.00
2019-01-10T01:42:42.444Z,0.00
2019-01-10T01:43:42.342Z,0.00
2019-01-10T01:44:42.297Z,0.00
2019-01-10T01:45:42.252Z,0.00
2019-01-10T01:46:42.209Z,0.00
2019-01-10T01:47:42.163Z,0.00
2019-01-10T01:48:42.119Z,0.00
2019-01-10T01:49:42.104Z,0.00
2019-01-10T01:50:42.033Z,0.00
2019-01-10T01:51:41.994Z,0.00
2019-01-10T01:52:41.945Z,0.00
2019-01-10T01:53:41.903Z,0.00
2019-01-10T01:54:41.854Z,0.00
2019-01-10T01:55:41.811Z,0.00
2019-01-10T01:56:41.768Z,0.00
2019-01-10T01:57:41.767Z,0.00
2019-01-10T01:58:41.679Z,0.00
2019-01-10T01:59:41.635Z,0.00
2019-01-10T02:00:41.588Z,0.00
2019-01-10T02:01:41.547Z,0.00
2019-01-10T02:02:41.505Z,0.00
2019-01-10T02:03:41.459Z,0.00
2019-01-10T02:04:41.410Z,0.00
2019-01-10T02:05:41.368Z,0.00
2019-01-10T02:06:41.322Z,0.00
2019-01-10T02:07:41.278Z,0.00
2019-01-10T02:08:41.234Z,0.00
2019-01-10T02:09:41.192Z,0.00
2019-01-10T02:10:41.145Z,0.00
2019-01-10T02:11:41.100Z,0.00
2019-01-10T02:12:41.059Z,0.00
2019-01-10T02:13:41.011Z,0.00
2019-01-10T02:14:40.972Z,0.00
2019-01-10T02:15:40.922Z,0.00
2019-01-10T02:16:40.880Z,0.00
2019-01-10T02:17:48.563Z,0.00
2019-01-10T02:18:40.789Z,0.00
2019-01-10T02:19:40.744Z,0.00
2019-01-10T02:20:40.694Z,0.00
2019-01-10T02:21:40.652Z,0.00
2019-01-10T02:22:40.611Z,0.00
2019-01-10T02:23:40.560Z,0.00
2019-01-10T02:24:40.524Z,0.00
2019-01-10T02:25:40.479Z,0.00
2019-01-10T02:26:40.431Z,0.00
2019-01-10T02:27:40.385Z,0.00
2019-01-10T02:28:40.345Z,0.00
2019-01-10T02:29:40.300Z,0.00
2019-01-10T02:30:42.034Z,0.00
2019-01-10T02:31:40.213Z,0.00
2019-01-10T02:32:40.164Z,0.00
2019-01-10T02:33:40.121Z,0.00
2019-01-10T02:34:40.075Z,0.00
2019-01-10T02:35:40.035Z,0.00
2019-01-10T02:36:40.007Z,0.00
2019-01-10T02:37:39.950Z,0.00
2019-01-10T02:38:39.901Z,0.00
2019-01-10T02:39:39.860Z,0.00
2019-01-10T02:40:39.806Z,0.00
2019-01-10T02:41:39.780Z,0.00
2019-01-10T02:42:39.722Z,0.00
2019-01-10T02:43:39.680Z,0.00
2019-01-10T02:44:39.632Z,0.00
2019-01-10T02:45:39.590Z,0.00
2019-01-10T02:46:39.542Z,0.00
2019-01-10T02:47:39.498Z,0.00
2019-01-10T02:48:39.460Z,0.00
2019-01-10T02:49:39.411Z,0.00
2019-01-10T02:50:39.367Z,0.00
2019-01-10T02:51:39.325Z,0.00
2019-01-10T02:52:39.278Z,0.00
2019-01-10T02:53:39.246Z,0.00
2019-01-10T02:54:39.187Z,0.00
2019-01-10T02:55:39.142Z,0.00
2019-01-10T02:56:39.102Z,0.00
2019-01-10T02:57:39.057Z,0.00
2019-01-10T02:58:39.013Z,0.00
2019-01-10T02:59:38.987Z,0.00
2019-01-10T03:00:38.925Z,0.00
2019-01-10T03:01:38.880Z,0.00
2019-01-10T03:02:38.835Z,0.00
2019-01-10T03:03:38.792Z,0.00
2019-01-10T03:04:38.742Z,0.00
2019-01-10T03:05:38.703Z,0.00
2019-01-10T03:06:38.657Z,0.00
2019-01-10T03:07:38.609Z,0.00
2019-01-10T03:08:38.574Z,0.00
2019-01-10T03:09:38.524Z,0.00
2019-01-10T03:10:38.482Z,0.00
2019-01-10T03:11:38.436Z,0.00
2019-01-10T03:12:38.387Z,0.00
2019-01-10T03:13:38.352Z,0.00
2019-01-10T03:14:38.303Z,0.00
2019-01-10T03:15:38.259Z,0.00
2019-01-10T03:16:38.207Z,0.00
2019-01-10T03:17:38.168Z,0.00
2019-01-10T03:18:38.122Z,0.00
2019-01-10T03:19:38.077Z,0.00
2019-01-10T03:20:38.038Z,0.00
2019-01-10T03:21:37.995Z,0.00
2019-01-10T03:22:37.946Z,0.00
2019-01-10T03:23:37.934Z,0.00
2019-01-10T03:24:37.853Z,0.00
2019-01-10T03:25:37.814Z,0.00
2019-01-10T03:26:37.767Z,0.00
2019-01-10T03:27:37.720Z,0.00
2019-01-10T03:28:37.686Z,0.00
2019-01-10T03:29:37.638Z,0.00
2019-01-10T03:30:37.591Z,0.00
2019-01-10T03:31:37.544Z,0.00
2019-01-10T03:32:37.521Z,0.00
2019-01-10T03:33:37.462Z,0.00
2019-01-10T03:34:37.425Z,0.00
2019-01-10T03:35:37.376Z,0.00
2019-01-10T03:36:37.324Z,0.00
2019-01-10T03:37:37.281Z,0.00
2019-01-10T03:38:37.235Z,0.00
2019-01-10T03:39:37.194Z,0.00
2019-01-10T03:40:37.150Z,0.00
2019-01-10T03:41:37.105Z,0.00
2019-01-10T03:42:37.062Z,0.00
2019-01-10T03:43:46.479Z,0.00
2019-01-10T03:44:36.966Z,0.00
2019-01-10T03:45:36.925Z,0.00
2019-01-10T03:46:36.934Z,0.00
2019-01-10T03:47:36.839Z,0.00
2019-01-10T03:48:36.788Z,0.00
2019-01-10T03:49:36.747Z,0.00
2019-01-10T03:50:37.865Z,0.00
2019-01-10T03:51:36.656Z,0.00
2019-01-10T04:06:55.584Z,0.00
2019-01-10T04:08:04.088Z,0.00
2019-01-10T04:09:59.836Z,0.00
2019-01-10T04:10:59.766Z,0.00
2019-01-10T04:11:59.709Z,0.00
2019-01-10T04:12:59.664Z,0.00
2019-01-10T04:13:59.624Z,0.00
2019-01-10T04:14:59.578Z,0.00
2019-01-10T04:15:59.530Z,0.00
2019-01-10T04:16:59.484Z,0.00
2019-01-10T04:17:59.437Z,0.00
2019-01-10T04:18:59.388Z,0.00
2019-01-10T04:19:59.348Z,0.00
2019-01-10T04:20:59.307Z,0.00
2019-01-10T04:21:59.346Z,0.00
2019-01-10T04:22:59.213Z,0.00
2019-01-10T04:23:59.161Z,0.00
2019-01-10T04:24:59.119Z,0.00
2019-01-10T04:25:59.112Z,0.00
2019-01-10T04:26:59.028Z,0.00
2019-01-10T04:27:59.007Z,0.00
2019-01-10T04:28:58.942Z,0.00
2019-01-10T04:29:58.900Z,0.00
2019-01-10T04:30:58.885Z,0.00
2019-01-10T04:31:58.808Z,0.00
2019-01-10T04:32:58.765Z,0.00
2019-01-10T04:33:58.719Z,0.00
2019-01-10T04:34:58.675Z,0.00
2019-01-10T04:35:58.627Z,0.00
2019-01-10T04:36:58.582Z,0.00
2019-01-10T04:37:58.538Z,0.00
2019-01-10T04:38:58.492Z,0.00
2019-01-10T04:39:58.454Z,0.00
2019-01-10T04:40:58.409Z,0.00
2019-01-10T04:41:58.361Z,0.00
2019-01-10T04:42:58.318Z,0.00
2019-01-10T04:44:06.707Z,0.00
2019-01-10T04:44:58.228Z,0.00
2019-01-10T04:45:58.182Z,0.00
2019-01-10T04:46:58.137Z,0.00
2019-01-10T04:47:58.104Z,0.00
2019-01-10T04:48:58.051Z,0.00
2019-01-10T04:49:58.004Z,0.00
2019-01-10T04:50:57.960Z,0.00
2019-01-10T04:51:57.918Z,0.00
2019-01-10T04:52:57.872Z,0.00
2019-01-10T04:53:57.827Z,0.00
2019-01-10T04:54:57.787Z,0.00
2019-01-10T04:55:57.735Z,0.00
2019-01-10T04:56:57.692Z,0.00
2019-01-10T04:57:57.647Z,0.00
2019-01-10T04:58:57.603Z,0.00
2019-01-10T04:59:57.566Z,0.00
2019-01-10T05:00:57.516Z,0.00
2019-01-10T05:01:57.518Z,0.00
2019-01-10T05:02:57.433Z,0.00
2019-01-10T05:03:57.380Z,0.00
2019-01-10T05:04:57.342Z,0.00
2019-01-10T05:05:57.295Z,0.00
2019-01-10T05:06:57.255Z,0.00
2019-01-10T05:07:57.200Z,0.00
2019-01-10T05:08:57.164Z,0.00
2019-01-10T05:09:57.116Z,0.00
2019-01-10T05:10:57.068Z,0.00
2019-01-10T05:11:57.031Z,0.00
2019-01-10T05:12:56.984Z,0.00
2019-01-10T05:13:56.939Z,0.00
2019-01-10T05:14:56.895Z,0.00
2019-01-10T05:15:56.881Z,0.00
2019-01-10T05:16:56.832Z,0.00
2019-01-10T05:17:56.760Z,0.00
2019-01-10T05:18:56.714Z,0.00
2019-01-10T05:19:56.681Z,0.00
2019-01-10T05:20:56.630Z,0.00
2019-01-10T05:21:56.582Z,0.00
2019-01-10T05:22:56.542Z,0.00
2019-01-10T05:23:56.500Z,0.00
2019-01-10T05:24:56.449Z,0.00
2019-01-10T05:25:56.411Z,0.00
2019-01-10T05:26:56.362Z,0.00
2019-01-10T05:27:56.313Z,0.00
2019-01-10T05:28:56.269Z,0.00
2019-01-10T05:29:56.227Z,0.00
2019-01-10T05:30:56.181Z,0.00
2019-01-10T05:31:56.149Z,0.00
2019-01-10T05:32:56.111Z,0.00
2019-01-10T05:33:56.052Z,0.00
2019-01-10T05:34:56.012Z,0.00
2019-01-10T05:35:55.965Z,0.00
2019-01-10T05:36:55.917Z,0.00
2019-01-10T05:37:55.883Z,0.00
2019-01-10T05:38:55.833Z,0.00
2019-01-10T05:39:55.779Z,0.00
2019-01-10T05:40:55.739Z,0.00
2019-01-10T05:41:55.697Z,0.00
2019-01-10T05:42:55.648Z,0.00
2019-01-10T05:43:55.608Z,0.00
2019-01-10T05:44:55.561Z,0.00
2019-01-10T05:45:55.519Z,0.00
2019-01-10T05:46:55.474Z,0.00
2019-01-10T05:47:55.423Z,0.00
2019-01-10T05:48:55.383Z,0.00
2019-01-10T05:49:55.338Z,0.00
2019-01-10T05:50:55.313Z,0.00
2019-01-10T05:51:55.256Z,0.00
2019-01-10T05:52:55.230Z,0.00
2019-01-10T05:53:55.160Z,0.00
2019-01-10T05:54:55.112Z,0.00
2019-01-10T05:55:55.074Z,0.00
2019-01-10T05:56:55.031Z,0.00
2019-01-10T05:57:54.982Z,0.00
2019-01-10T05:58:54.941Z,0.00
2019-01-10T05:59:54.927Z,0.00
2019-01-10T06:00:54.939Z,0.00
2019-01-10T06:01:54.805Z,0.00
2019-01-10T06:02:54.758Z,0.00
2019-01-10T06:03:54.717Z,0.00
2019-01-10T06:04:54.672Z,0.00
2019-01-10T06:05:54.627Z,0.00
2019-01-10T06:06:54.587Z,0.00
2019-01-10T06:07:54.535Z,0.00
2019-01-10T06:08:54.490Z,0.00
2019-01-10T06:09:54.448Z,0.00
2019-01-10T06:10:54.407Z,0.00
2019-01-10T06:11:54.355Z,0.00
2019-01-10T06:12:54.314Z,0.00
2019-01-10T06:13:54.267Z,0.00
2019-01-10T06:14:54.223Z,0.00
2019-01-10T06:15:54.183Z,0.00
2019-01-10T06:16:54.138Z,0.00
2019-01-10T06:17:54.094Z,0.00
2019-01-10T06:18:54.049Z,0.00
2019-01-10T06:19:54.002Z,0.00
2019-01-10T06:20:53.954Z,0.00
2019-01-10T06:21:53.909Z,0.00
2019-01-10T06:22:53.894Z,0.00
2019-01-10T06:23:53.824Z,0.00
2019-01-10T06:24:53.797Z,0.00
2019-01-10T06:25:53.732Z,0.00
2019-01-10T06:26:53.689Z,0.00
2019-01-10T06:27:53.647Z,0.00
2019-01-10T06:28:53.603Z,0.00
2019-01-10T06:29:53.559Z,0.00
2019-01-10T06:30:53.511Z,0.00
2019-01-10T06:31:53.471Z,0.00
2019-01-10T06:32:53.419Z,0.00
2019-01-10T06:33:53.378Z,0.00
2019-01-10T06:34:53.337Z,0.00
2019-01-10T06:35:53.322Z,0.00
2019-01-10T06:36:53.251Z,0.00
2019-01-10T06:37:53.205Z,0.00
2019-01-10T06:38:53.156Z,0.00
2019-01-10T06:39:53.111Z,0.00
2019-01-10T06:40:53.062Z,0.00
2019-01-10T06:41:53.027Z,0.00
2019-01-10T06:42:52.976Z,0.00
2019-01-10T06:43:52.930Z,0.00
2019-01-10T06:44:52.954Z,0.00
2019-01-10T06:45:52.842Z,0.00
2019-01-10T06:46:52.797Z,0.00
2019-01-10T06:47:52.754Z,0.00
2019-01-10T06:48:52.715Z,0.00
2019-01-10T06:49:52.666Z,0.00
2019-01-10T06:50:52.623Z,0.00
2019-01-10T06:51:52.575Z,0.00
2019-01-10T06:52:52.528Z,0.00
2019-01-10T06:53:52.483Z,0.00
2019-01-10T06:54:56.669Z,0.00
2019-01-10T06:55:52.399Z,0.00
2019-01-10T06:56:52.362Z,0.00
2019-01-10T06:57:52.306Z,0.00
2019-01-10T06:58:52.265Z,0.00
2019-01-10T06:59:52.219Z,0.00
2019-01-10T07:00:52.178Z,0.00
2019-01-10T07:01:52.133Z,0.00
2019-01-10T07:02:52.087Z,0.00
2019-01-10T07:03:52.042Z,0.00
2019-01-10T07:04:51.997Z,0.00
2019-01-10T07:05:51.949Z,0.00
2019-01-10T07:06:51.906Z,0.00
2019-01-10T07:07:56.553Z,4.00
2019-01-10T07:08:51.867Z,0.00
2019-01-10T07:09:51.788Z,0.00
2019-01-10T07:10:51.730Z,4.00
2019-01-10T07:11:51.683Z,4.00
2019-01-10T07:12:51.642Z,4.00
2019-01-10T07:13:51.599Z,4.00
2019-01-10T07:14:53.729Z,8.00
2019-01-10T07:15:51.510Z,4.00
2019-01-10T07:16:53.673Z,8.00
2019-01-10T07:17:51.493Z,8.00
2019-01-10T07:18:51.373Z,8.00
2019-01-10T07:19:51.331Z,8.00
2019-01-10T07:20:52.265Z,12.00
2019-01-10T07:21:51.248Z,8.00
2019-01-10T07:22:51.197Z,12.00
2019-01-10T07:23:51.150Z,12.00
2019-01-10T07:24:51.106Z,16.00
2019-01-10T07:25:51.062Z,20.00
2019-01-10T07:26:51.017Z,20.00
2019-01-10T07:27:50.974Z,24.00
2019-01-10T07:28:50.932Z,28.00
2019-01-10T07:29:50.881Z,32.00
2019-01-10T07:30:50.839Z,36.00
2019-01-10T07:31:50.796Z,40.00
2019-01-10T07:32:50.754Z,44.00
2019-01-10T07:33:50.711Z,48.00
2019-01-10T07:34:50.661Z,52.00
2019-01-10T07:35:50.617Z,56.00
2019-01-10T07:36:50.569Z,60.00
2019-01-10T07:37:50.528Z,68.00
2019-01-10T07:38:50.523Z,72.00
2019-01-10T07:39:50.448Z,72.00
2019-01-10T07:40:50.402Z,80.00
2019-01-10T07:41:50.358Z,80.00
2019-01-10T07:42:50.407Z,88.00
2019-01-10T07:43:50.357Z,92.00
2019-01-10T07:44:50.218Z,100.00
2019-01-10T07:45:50.175Z,108.00
2019-01-10T07:46:50.129Z,108.00
2019-01-10T07:47:50.081Z,108.00
2019-01-10T07:48:50.044Z,108.00
2019-01-10T07:49:49.989Z,104.00
2019-01-10T07:50:49.948Z,108.00
2019-01-10T07:51:49.931Z,108.00
2019-01-10T07:52:49.873Z,108.00
2019-01-10T07:53:49.824Z,108.00
2019-01-10T07:54:49.779Z,108.00
2019-01-10T07:55:49.724Z,108.00
2019-01-10T07:56:49.677Z,116.00
2019-01-10T07:57:49.633Z,120.00
2019-01-10T07:58:49.592Z,120.00
2019-01-10T07:59:49.547Z,132.00
2019-01-10T08:00:49.517Z,136.00
2019-01-10T08:01:49.457Z,140.00
2019-01-10T08:02:49.445Z,144.00
2019-01-10T08:03:49.368Z,148.00
2019-01-10T08:04:49.340Z,148.00
2019-01-10T08:05:49.287Z,148.00
2019-01-10T08:06:49.236Z,156.00
2019-01-10T08:07:49.193Z,172.00
2019-01-10T08:08:49.150Z,188.00
2019-01-10T08:09:49.097Z,196.00
2019-01-10T08:10:49.059Z,204.00
2019-01-10T08:11:49.013Z,208.00
2019-01-10T08:12:48.970Z,212.00
2019-01-10T08:14:48.879Z,228.00
2019-01-10T08:15:48.977Z,228.00
2019-01-10T08:16:48.797Z,236.00
2019-01-10T08:17:48.787Z,252.00
2019-01-10T08:18:51.392Z,268.00
2019-01-10T08:19:48.658Z,264.00
2019-01-10T08:20:49.016Z,272.00
2019-01-10T08:21:49.094Z,280.00
2019-01-10T08:22:49.060Z,272.00
2019-01-10T08:24:48.880Z,300.00
2019-01-10T08:25:48.519Z,320.00
2019-01-10T08:26:48.486Z,328.00
2019-01-10T08:27:48.842Z,328.00
2019-01-10T08:28:48.325Z,324.00
2019-01-10T08:29:48.245Z,316.00
2019-01-10T08:30:48.166Z,300.00
2019-01-10T08:31:48.135Z,320.00
2019-01-10T08:32:48.091Z,344.00
2019-01-10T08:33:48.044Z,380.00
2019-01-10T08:34:48.011Z,416.00
2019-01-10T08:35:48.056Z,444.00
2019-01-10T08:36:47.903Z,464.00
2019-01-10T08:37:47.870Z,492.00
2019-01-10T08:38:47.819Z,504.00
2019-01-10T08:39:47.763Z,508.00
2019-01-10T08:40:47.717Z,516.00
2019-01-10T08:41:47.673Z,540.00
2019-01-10T08:42:47.625Z,548.00
2019-01-10T08:43:47.595Z,556.00
2019-01-10T08:44:47.588Z,552.00
2019-01-10T08:46:47.785Z,588.00
2019-01-10T08:47:47.707Z,588.00
2019-01-10T08:48:47.445Z,588.00
2019-01-10T08:49:47.374Z,628.00
2019-01-10T08:50:47.286Z,676.00
2019-01-10T08:51:47.229Z,688.00
2019-01-10T08:52:47.185Z,684.00
2019-01-10T08:53:53.863Z,672.00
2019-01-10T08:54:47.095Z,660.00
2019-01-10T08:55:47.053Z,664.00
2019-01-10T08:56:47.008Z,676.00
2019-01-10T08:57:46.961Z,688.00
2019-01-10T08:58:46.915Z,716.00
2019-01-10T09:00:46.915Z,724.00
2019-01-10T09:01:46.778Z,724.00
2019-01-10T09:02:46.738Z,732.00
2019-01-10T09:03:46.697Z,752.00
2019-01-10T09:04:46.654Z,780.00
2019-01-10T09:05:46.627Z,800.00
2019-01-10T09:06:46.570Z,812.00
2019-01-10T09:07:46.573Z,816.00
2019-01-10T09:09:47.550Z,836.00
2019-01-10T09:13:50.101Z,856.00
2019-01-10T09:14:46.289Z,872.00
2019-01-10T09:15:46.327Z,896.00
2019-01-10T09:16:46.347Z,936.00
2019-01-10T09:17:46.499Z,952.00
2019-01-10T09:21:54.933Z,960.00
2019-01-10T09:22:46.193Z,928.00
2019-01-10T09:23:45.808Z,852.00
2019-01-10T09:24:45.782Z,780.00
2019-01-10T09:25:47.004Z,752.00
2019-01-10T09:26:45.819Z,788.00
2019-01-10T09:27:45.704Z,776.00
2019-01-10T09:28:46.030Z,804.00
2019-01-10T09:29:46.527Z,836.00
2019-01-10T09:30:46.111Z,900.00
2019-01-10T09:32:45.513Z,1000.00
2019-01-10T09:33:45.428Z,1012.00
2019-01-10T09:34:45.327Z,1048.00
2019-01-10T09:35:45.293Z,1076.00
2019-01-10T09:36:45.256Z,1088.00
2019-01-10T09:37:45.198Z,1088.00
2019-01-10T09:40:45.331Z,1036.00
2019-01-10T09:41:45.302Z,1044.00
2019-01-10T09:42:46.351Z,1044.00
2019-01-10T09:43:46.347Z,1044.00
2019-01-10T09:44:44.934Z,1048.00
2019-01-10T09:45:45.131Z,1048.00
2019-01-10T09:46:45.198Z,1048.00
2019-01-10T09:48:44.970Z,1084.00
2019-01-10T09:49:44.720Z,1108.00
2019-01-10T09:50:45.000Z,1116.00
2019-01-10T09:52:44.606Z,1112.00
2019-01-10T09:53:45.231Z,1096.00
2019-01-10T09:54:44.644Z,1052.00
2019-01-10T09:55:44.378Z,1024.00
2019-01-10T09:56:44.333Z,1020.00
2019-01-10T09:57:44.287Z,1076.00
2019-01-10T09:58:44.256Z,1140.00
2019-01-10T09:59:44.292Z,1140.00
2019-01-10T10:00:44.179Z,1100.00
2019-01-10T10:01:44.135Z,1064.00
2019-01-10T10:02:44.077Z,1052.00
2019-01-10T10:03:44.024Z,1064.00
2019-01-10T10:04:44.073Z,1084.00
2019-01-10T10:05:43.941Z,1104.00
2019-01-10T10:20:28.325Z,1320.00
2019-01-10T10:21:28.253Z,1360.00
2019-01-10T10:22:28.201Z,1392.00
2019-01-10T10:23:28.152Z,1372.00
2019-01-10T10:24:28.108Z,1356.00
2019-01-10T10:25:28.054Z,1368.00
2019-01-10T10:26:28.011Z,1360.00
2019-01-10T10:27:27.975Z,1372.00
2019-01-10T10:28:27.922Z,1380.00
2019-01-10T10:29:27.872Z,1364.00
2019-01-10T10:30:27.827Z,1384.00
2019-01-10T10:31:27.777Z,1420.00
2019-01-10T10:32:27.739Z,1448.00
2019-01-10T10:33:27.694Z,1460.00
2019-01-10T10:34:27.654Z,1476.00
2019-01-10T10:35:27.598Z,1496.00
2019-01-10T10:36:27.554Z,1516.00
2019-01-10T10:37:27.513Z,1552.00
2019-01-10T10:38:27.469Z,1636.00
2019-01-10T10:39:27.426Z,1684.00
2019-01-10T10:40:27.381Z,1756.00
2019-01-10T10:41:27.521Z,1852.00
2019-01-10T10:42:27.583Z,1932.00
2019-01-10T10:43:27.368Z,1992.00
2019-01-10T10:44:27.335Z,2064.00
2019-01-10T10:45:27.945Z,2076.00
2019-01-10T10:46:27.168Z,2088.00
2019-01-10T10:48:27.318Z,2192.00
2019-01-10T10:49:27.215Z,2248.00
2019-01-10T10:50:27.554Z,2256.00
2019-01-10T10:51:27.053Z,2344.00
2019-01-10T10:52:27.922Z,2308.00
2019-01-10T10:54:27.502Z,2304.00
2019-01-10T10:55:26.976Z,2284.00
2019-01-10T10:56:26.768Z,2204.00
2019-01-10T10:57:26.631Z,2152.00
2019-01-10T10:58:26.584Z,2080.00
2019-01-10T10:59:26.549Z,2044.00
2019-01-10T11:00:26.564Z,2028.00
2019-01-10T11:01:26.563Z,2056.00
2019-01-10T11:02:26.903Z,2072.00
2019-01-10T11:03:26.939Z,2024.00
2019-01-10T11:05:26.292Z,1900.00
2019-01-10T11:06:26.622Z,1844.00
2019-01-10T11:07:26.406Z,1788.00
2019-01-10T11:08:26.144Z,1784.00
2019-01-10T11:09:26.108Z,1804.00
2019-01-10T11:10:26.062Z,1804.00
2019-01-10T11:11:26.031Z,1764.00
2019-01-10T11:12:26.442Z,1720.00
2019-01-10T11:13:26.269Z,1692.00
2019-01-10T11:14:25.998Z,1632.00
2019-01-10T11:15:26.005Z,1560.00
2019-01-10T11:16:25.932Z,1540.00
2019-01-10T11:17:25.963Z,1540.00
2019-01-10T11:18:26.095Z,1560.00
2019-01-10T11:19:25.672Z,1576.00
2019-01-10T11:20:25.632Z,1612.00
2019-01-10T11:21:26.043Z,1640.00
2019-01-10T11:22:25.869Z,1648.00
2019-01-10T11:23:25.491Z,1668.00
2019-01-10T11:24:26.102Z,1708.00
2019-01-10T11:25:26.673Z,1756.00
2019-01-10T11:26:25.351Z,1836.00
2019-01-10T11:27:25.353Z,1932.00
2019-01-10T11:28:25.257Z,2028.00
2019-01-10T11:29:25.213Z,2072.00
2019-01-10T11:30:25.170Z,2012.00
2019-01-10T11:31:25.127Z,2092.00
2019-01-10T11:32:25.083Z,2204.00
2019-01-10T11:33:25.038Z,2268.00
2019-01-10T11:34:24.993Z,2320.00
2019-01-10T11:35:24.946Z,2296.00
2019-01-10T11:36:24.909Z,2260.00
2019-01-10T11:37:24.862Z,2236.00
2019-01-10T11:38:24.818Z,2192.00
2019-01-10T11:39:24.771Z,2176.00
2019-01-10T11:40:24.727Z,2228.00
2019-01-10T11:41:24.687Z,2296.00
2019-01-10T11:42:24.644Z,2348.00
2019-01-10T11:43:24.608Z,2316.00
2019-01-10T11:44:24.559Z,2312.00
2019-01-10T11:45:24.512Z,2336.00
2019-01-10T11:46:24.470Z,2328.00
2019-01-10T11:47:24.419Z,2288.00
2019-01-10T11:48:24.377Z,2268.00
2019-01-10T11:49:24.335Z,2228.00
2019-01-10T11:50:24.293Z,2112.00
2019-01-10T11:51:24.249Z,2044.00
2019-01-10T11:52:24.203Z,1948.00
2019-01-10T11:53:24.157Z,1816.00
2019-01-10T11:54:24.117Z,1768.00
2019-01-10T11:55:24.073Z,1740.00
2019-01-10T11:56:24.029Z,1748.00
2019-01-10T11:57:23.984Z,1788.00
2019-01-10T11:58:23.945Z,1820.00
2019-01-10T11:59:23.893Z,1724.00
2019-01-10T12:00:23.849Z,1612.00
2019-01-10T12:01:23.807Z,1512.00
2019-01-10T12:02:23.766Z,1420.00
2019-01-10T12:03:23.723Z,1340.00
2019-01-10T12:04:23.683Z,1240.00
2019-01-10T12:05:23.634Z,1188.00
2019-01-10T12:06:23.588Z,1132.00
2019-01-10T12:07:23.541Z,1016.00
2019-01-10T12:08:23.524Z,952.00
2019-01-10T12:09:23.457Z,1044.00
2019-01-10T12:10:23.418Z,1172.00
2019-01-10T12:11:23.363Z,1188.00
2019-01-10T12:12:23.329Z,1184.00
2019-01-10T12:13:23.280Z,1252.00
2019-01-10T12:14:23.239Z,1428.00
2019-01-10T12:15:23.196Z,1552.00
2019-01-10T12:16:28.440Z,1652.00
2019-01-10T12:17:23.107Z,1780.00
2019-01-10T12:18:23.064Z,1848.00
2019-01-10T12:19:23.015Z,1832.00
2019-01-10T12:20:22.973Z,1956.00
2019-01-10T12:21:22.948Z,2008.00
2019-01-10T12:22:22.919Z,2048.00
2019-01-10T12:23:23.163Z,2100.00
2019-01-10T12:24:22.896Z,2024.00
2019-01-10T12:25:23.099Z,1840.00
2019-01-10T12:26:23.168Z,1668.00
2019-01-10T12:27:22.857Z,1596.00
2019-01-10T12:28:22.809Z,1648.00
2019-01-10T12:29:22.772Z,1696.00
2019-01-10T12:30:22.535Z,1608.00
2019-01-10T12:31:22.513Z,1580.00
2019-01-10T12:32:22.454Z,1516.00
2019-01-10T12:34:22.557Z,1736.00
2019-01-10T12:35:22.507Z,1748.00
2019-01-10T12:36:22.276Z,1964.00
2019-01-10T12:37:22.229Z,1996.00
2019-01-10T12:38:22.184Z,1988.00
2019-01-10T12:39:22.136Z,1868.00
2019-01-10T12:40:22.099Z,1844.00
2019-01-10T12:41:22.055Z,1736.00
2019-01-10T12:42:22.007Z,1668.00
2019-01-10T12:43:21.960Z,1652.00
2019-01-10T12:44:21.917Z,1624.00
2019-01-10T12:45:21.875Z,1608.00
2019-01-10T12:46:21.833Z,1612.00
2019-01-10T12:47:21.792Z,1580.00
2019-01-10T12:48:21.805Z,1496.00
2019-01-10T12:49:21.706Z,1528.00
2019-01-10T12:50:21.654Z,1636.00
2019-01-10T12:51:21.614Z,1676.00
2019-01-10T12:52:21.566Z,1752.00
2019-01-10T12:53:21.526Z,1788.00
2019-01-10T12:54:22.003Z,1744.00
2019-01-10T12:55:21.439Z,1712.00
2019-01-10T12:56:21.418Z,1656.00
2019-01-10T12:57:21.367Z,1628.00
2019-01-10T12:58:21.307Z,1576.00
2019-01-10T12:59:21.273Z,1508.00
2019-01-10T13:00:21.221Z,1436.00
2019-01-10T13:01:21.176Z,1360.00
2019-01-10T13:02:21.138Z,1264.00
2019-01-10T13:03:21.082Z,1116.00
2019-01-10T13:04:21.039Z,1012.00
2019-01-10T13:05:20.999Z,992.00
2019-01-10T13:06:20.955Z,932.00
2019-01-10T13:07:21.060Z,924.00
2019-01-10T13:08:21.162Z,980.00
2019-01-10T13:09:20.829Z,952.00
2019-01-10T13:10:21.069Z,912.00
2019-01-10T13:11:20.855Z,896.00
2019-01-10T13:12:20.705Z,856.00
2019-01-10T13:13:20.650Z,804.00
2019-01-10T13:14:20.603Z,744.00
2019-01-10T13:15:20.555Z,696.00
2019-01-10T13:16:20.542Z,672.00
2019-01-10T13:17:20.468Z,628.00
2019-01-10T13:18:20.429Z,600.00
2019-01-10T13:19:20.385Z,624.00
2019-01-10T13:20:20.354Z,572.00
2019-01-10T13:21:20.299Z,580.00
2019-01-10T13:22:20.294Z,592.00
2019-01-10T13:23:20.595Z,584.00
2019-01-10T13:24:20.165Z,628.00
2019-01-10T13:25:20.117Z,664.00
2019-01-10T13:26:20.075Z,676.00
2019-01-10T13:27:20.473Z,680.00
2019-01-10T13:28:19.992Z,684.00
2019-01-10T13:29:19.941Z,664.00
2019-01-10T13:30:19.910Z,672.00
2019-01-10T13:31:19.864Z,664.00
2019-01-10T13:32:19.814Z,664.00
2019-01-10T13:33:19.776Z,676.00
2019-01-10T13:34:19.731Z,692.00
2019-01-10T13:35:19.673Z,684.00
2019-01-10T13:36:19.629Z,736.00
2019-01-10T13:37:19.586Z,752.00
2019-01-10T13:38:19.544Z,792.00